sensor_id;sensor_type;location;lat;lon;timestamp;pressure;altitude;pressure_sealevel;temperature;humidity
24234;BME280;12365;43.554;1.388;2024-01-30T00:01:00;101219.41;;;14.32;64.18
24234;BME280;12365;43.554;1.388;2024-01-30T00:03:26;101224.66;;;14.32;64.30
24234;BME280;12365;43.554;1.388;2024-01-30T00:05:51;101230.75;;;14.31;64.38
24234;BME280;12365;43.554;1.388;2024-01-30T00:08:17;101221.97;;;14.31;64.31
24234;BME280;12365;43.554;1.388;2024-01-30T00:10:42;101214.81;;;14.28;64.21
24234;BME280;12365;43.554;1.388;2024-01-30T00:13:08;101215.63;;;14.27;64.27
24234;BME280;12365;43.554;1.388;2024-01-30T00:15:34;101213.81;;;14.26;64.40
24234;BME280;12365;43.554;1.388;2024-01-30T00:17:59;101216.34;;;14.25;64.44
24234;BME280;12365;43.554;1.388;2024-01-30T00:20:25;101216.34;;;14.25;64.38
24234;BME280;12365;43.554;1.388;2024-01-30T00:22:50;101209.22;;;14.22;64.42
24234;BME280;12365;43.554;1.388;2024-01-30T00:25:16;101216.09;;;14.20;64.43
24234;BME280;12365;43.554;1.388;2024-01-30T00:27:41;101211.78;;;14.21;64.54
24234;BME280;12365;43.554;1.388;2024-01-30T00:30:07;101211.66;;;14.19;64.43
24234;BME280;12365;43.554;1.388;2024-01-30T00:32:32;101210.66;;;14.17;64.48
24234;BME280;12365;43.554;1.388;2024-01-30T00:34:58;101207.16;;;14.17;64.45
24234;BME280;12365;43.554;1.388;2024-01-30T00:37:23;101207.16;;;14.17;64.48
24234;BME280;12365;43.554;1.388;2024-01-30T00:39:49;101209.69;;;14.15;64.48
24234;BME280;12365;43.554;1.388;2024-01-30T00:42:14;101209.69;;;14.15;64.50
24234;BME280;12365;43.554;1.388;2024-01-30T00:44:40;101209.69;;;14.15;64.63
24234;BME280;12365;43.554;1.388;2024-01-30T00:47:06;101213.13;;;14.14;64.49
24234;BME280;12365;43.554;1.388;2024-01-30T00:49:31;101210.41;;;14.13;64.51
24234;BME280;12365;43.554;1.388;2024-01-30T00:51:56;101209.50;;;14.12;64.57
24234;BME280;12365;43.554;1.388;2024-01-30T00:54:22;101212.97;;;14.11;64.53
24234;BME280;12365;43.554;1.388;2024-01-30T00:56:47;101212.06;;;14.11;64.51
24234;BME280;12365;43.554;1.388;2024-01-30T00:59:13;101205.00;;;14.09;64.57
24234;BME280;12365;43.554;1.388;2024-01-30T01:01:38;101205.88;;;14.10;64.59
24234;BME280;12365;43.554;1.388;2024-01-30T01:04:03;101208.50;;;14.10;64.74
24234;BME280;12365;43.554;1.388;2024-01-30T01:06:29;101204.09;;;14.09;64.67
24234;BME280;12365;43.554;1.388;2024-01-30T01:08:54;101209.44;;;14.11;64.58
24234;BME280;12365;43.554;1.388;2024-01-30T01:11:19;101201.47;;;14.09;64.83
24234;BME280;12365;43.554;1.388;2024-01-30T01:13:45;101201.47;;;14.09;64.72
24234;BME280;12365;43.554;1.388;2024-01-30T01:16:10;101204.81;;;14.06;64.52
24234;BME280;12365;43.554;1.388;2024-01-30T01:18:36;101217.06;;;14.06;64.79
24234;BME280;12365;43.554;1.388;2024-01-30T01:21:01;101210.91;;;14.05;64.67
24234;BME280;12365;43.554;1.388;2024-01-30T01:23:26;101208.28;;;14.05;64.74
24234;BME280;12365;43.554;1.388;2024-01-30T01:25:52;101209.97;;;14.05;64.84
24234;BME280;12365;43.554;1.388;2024-01-30T01:28:17;101211.81;;;14.06;64.78
24234;BME280;12365;43.554;1.388;2024-01-30T01:30:42;101216.22;;;14.07;64.66
24234;BME280;12365;43.554;1.388;2024-01-30T01:33:08;101211.81;;;14.06;64.68
24234;BME280;12365;43.554;1.388;2024-01-30T01:35:34;101211.81;;;14.06;64.90
24234;BME280;12365;43.554;1.388;2024-01-30T01:38:00;101214.50;;;14.07;64.85
24234;BME280;12365;43.554;1.388;2024-01-30T01:40:27;101216.38;;;14.10;64.95
24234;BME280;12365;43.554;1.388;2024-01-30T01:42:54;101216.59;;;14.13;64.83
24234;BME280;12365;43.554;1.388;2024-01-30T01:45:21;101220.19;;;14.15;64.85
24234;BME280;12365;43.554;1.388;2024-01-30T01:47:50;101219.44;;;14.18;64.79
24234;BME280;12365;43.554;1.388;2024-01-30T01:50:16;101225.78;;;14.21;64.79
24234;BME280;12365;43.554;1.388;2024-01-30T01:52:44;101229.41;;;14.23;64.87
24234;BME280;12365;43.554;1.388;2024-01-30T01:55:13;101219.97;;;14.27;64.96
24234;BME280;12365;43.554;1.388;2024-01-30T01:57:39;101211.47;;;14.31;64.80
24234;BME280;12365;43.554;1.388;2024-01-30T02:00:05;101204.59;;;14.33;64.98
24234;BME280;12365;43.554;1.388;2024-01-30T02:02:31;101219.50;;;14.34;64.88
24234;BME280;12365;43.554;1.388;2024-01-30T02:05:00;101213.44;;;14.35;65.09
24234;BME280;12365;43.554;1.388;2024-01-30T02:07:27;101223.03;;;14.35;64.89
24234;BME280;12365;43.554;1.388;2024-01-30T02:09:53;101219.69;;;14.37;65.04
24234;BME280;12365;43.554;1.388;2024-01-30T02:12:18;101217.16;;;14.39;65.08
24234;BME280;12365;43.554;1.388;2024-01-30T02:14:47;101217.16;;;14.39;64.83
24234;BME280;12365;43.554;1.388;2024-01-30T02:17:13;101217.94;;;14.38;64.91
24234;BME280;12365;43.554;1.388;2024-01-30T02:19:39;101214.69;;;14.42;65.00
24234;BME280;12365;43.554;1.388;2024-01-30T02:22:05;101221.56;;;14.40;65.03
24234;BME280;12365;43.554;1.388;2024-01-30T02:24:30;101218.13;;;14.41;65.10
24234;BME280;12365;43.554;1.388;2024-01-30T02:26:56;101223.41;;;14.41;64.99
24234;BME280;12365;43.554;1.388;2024-01-30T02:29:21;101219.03;;;14.41;65.07
24234;BME280;12365;43.554;1.388;2024-01-30T02:31:47;101214.69;;;14.42;65.11
24234;BME280;12365;43.554;1.388;2024-01-30T02:34:13;101217.31;;;14.42;65.13
24234;BME280;12365;43.554;1.388;2024-01-30T02:36:42;101216.41;;;14.41;65.25
24234;BME280;12365;43.554;1.388;2024-01-30T02:39:07;101221.66;;;14.41;65.13
24234;BME280;12365;43.554;1.388;2024-01-30T02:41:33;101231.34;;;14.42;65.05
24234;BME280;12365;43.554;1.388;2024-01-30T02:43:58;101226.91;;;14.41;65.03
24234;BME280;12365;43.554;1.388;2024-01-30T02:46:24;101223.41;;;14.41;65.27
24234;BME280;12365;43.554;1.388;2024-01-30T02:48:49;101213.78;;;14.41;64.99
24234;BME280;12365;43.554;1.388;2024-01-30T02:51:14;101230.44;;;14.42;65.18
24234;BME280;12365;43.554;1.388;2024-01-30T02:53:40;101225.19;;;14.42;65.02
24234;BME280;12365;43.554;1.388;2024-01-30T02:56:05;101215.59;;;14.42;65.29
24234;BME280;12365;43.554;1.388;2024-01-30T02:58:31;101223.41;;;14.41;65.25
24234;BME280;12365;43.554;1.388;2024-01-30T03:00:56;101218.22;;;14.42;65.29
24234;BME280;12365;43.554;1.388;2024-01-30T03:03:21;101217.31;;;14.42;65.22
24234;BME280;12365;43.554;1.388;2024-01-30T03:05:47;101210.31;;;14.42;65.32
24234;BME280;12365;43.554;1.388;2024-01-30T03:08:13;101213.84;;;14.43;65.31
24234;BME280;12365;43.554;1.388;2024-01-30T03:10:38;101211.22;;;14.43;65.25
24234;BME280;12365;43.554;1.388;2024-01-30T03:13:03;101211.06;;;14.40;65.25
24234;BME280;12365;43.554;1.388;2024-01-30T03:15:29;101216.31;;;14.40;65.35
24234;BME280;12365;43.554;1.388;2024-01-30T03:17:54;101216.47;;;14.43;65.17
24234;BME280;12365;43.554;1.388;2024-01-30T03:20:20;101219.94;;;14.42;65.37
24234;BME280;12365;43.554;1.388;2024-01-30T03:22:45;101216.47;;;14.43;65.20
24234;BME280;12365;43.554;1.388;2024-01-30T03:25:10;101220.03;;;14.43;65.32
24234;BME280;12365;43.554;1.388;2024-01-30T03:27:36;101215.69;;;14.44;65.34
24234;BME280;12365;43.554;1.388;2024-01-30T03:30:01;101220.94;;;14.44;65.28
24234;BME280;12365;43.554;1.388;2024-01-30T03:32:27;101220.09;;;14.45;65.37
24234;BME280;12365;43.554;1.388;2024-01-30T03:34:52;101223.63;;;14.45;65.44
24234;BME280;12365;43.554;1.388;2024-01-30T03:37:17;101233.31;;;14.46;65.23
24234;BME280;12365;43.554;1.388;2024-01-30T03:39:43;101228.97;;;14.47;65.22
24234;BME280;12365;43.554;1.388;2024-01-30T03:42:08;101234.22;;;14.47;65.26
24234;BME280;12365;43.554;1.388;2024-01-30T03:44:33;101235.13;;;14.47;65.41
24234;BME280;12365;43.554;1.388;2024-01-30T03:46:59;101245.63;;;14.47;65.40
24234;BME280;12365;43.554;1.388;2024-01-30T03:49:24;101236.84;;;14.47;65.45
24234;BME280;12365;43.554;1.388;2024-01-30T03:51:50;101248.19;;;14.46;65.25
24234;BME280;12365;43.554;1.388;2024-01-30T03:54:15;101238.66;;;14.48;65.47
24234;BME280;12365;43.554;1.388;2024-01-30T03:56:41;101238.59;;;14.46;65.42
24234;BME280;12365;43.554;1.388;2024-01-30T03:59:06;101239.63;;;14.50;65.37
24234;BME280;12365;43.554;1.388;2024-01-30T04:01:32;101242.25;;;14.50;65.48
24234;BME280;12365;43.554;1.388;2024-01-30T04:03:58;101237.84;;;14.49;65.50
24234;BME280;12365;43.554;1.388;2024-01-30T04:06:23;101239.63;;;14.50;65.46
24234;BME280;12365;43.554;1.388;2024-01-30T04:08:49;101238.75;;;14.49;65.48
24234;BME280;12365;43.554;1.388;2024-01-30T04:11:14;101244.84;;;14.48;65.37
24234;BME280;12365;43.554;1.388;2024-01-30T04:13:40;101234.38;;;14.50;65.59
24234;BME280;12365;43.554;1.388;2024-01-30T04:16:05;101240.53;;;14.50;65.41
24234;BME280;12365;43.554;1.388;2024-01-30T04:18:31;101241.38;;;14.49;65.36
24234;BME280;12365;43.554;1.388;2024-01-30T04:20:57;101245.72;;;14.49;65.51
24234;BME280;12365;43.554;1.388;2024-01-30T04:23:22;101244.91;;;14.50;65.34
24234;BME280;12365;43.554;1.388;2024-01-30T04:25:48;101250.97;;;14.49;65.40
24234;BME280;12365;43.554;1.388;2024-01-30T04:28:13;101244.84;;;14.48;65.38
24234;BME280;12365;43.554;1.388;2024-01-30T04:30:39;101243.72;;;14.45;65.34
24234;BME280;12365;43.554;1.388;2024-01-30T04:33:04;101251.34;;;14.40;65.41
24234;BME280;12365;43.554;1.388;2024-01-30T04:35:30;101253.81;;;14.37;65.46
24234;BME280;12365;43.554;1.388;2024-01-30T04:37:55;101254.47;;;14.33;65.51
24234;BME280;12365;43.554;1.388;2024-01-30T04:40:21;101264.78;;;14.30;65.52
24234;BME280;12365;43.554;1.388;2024-01-30T04:42:46;101270.84;;;14.29;65.48
24234;BME280;12365;43.554;1.388;2024-01-30T04:45:12;101276.00;;;14.27;65.26
24234;BME280;12365;43.554;1.388;2024-01-30T04:47:37;101268.88;;;14.25;65.44
24234;BME280;12365;43.554;1.388;2024-01-30T04:50:05;101267.97;;;14.24;65.48
24234;BME280;12365;43.554;1.388;2024-01-30T04:52:31;101267.97;;;14.24;65.54
24234;BME280;12365;43.554;1.388;2024-01-30T04:54:56;101271.41;;;14.23;65.59
24234;BME280;12365;43.554;1.388;2024-01-30T04:57:22;101278.47;;;14.24;65.54
24234;BME280;12365;43.554;1.388;2024-01-30T04:59:47;101284.72;;;14.26;65.49
24234;BME280;12365;43.554;1.388;2024-01-30T05:02:12;101290.97;;;14.28;65.49
24234;BME280;12365;43.554;1.388;2024-01-30T05:04:38;101287.50;;;14.29;65.54
24234;BME280;12365;43.554;1.388;2024-01-30T05:07:04;101290.13;;;14.29;65.47
24234;BME280;12365;43.554;1.388;2024-01-30T05:09:29;101286.72;;;14.30;65.86
24234;BME280;12365;43.554;1.388;2024-01-30T05:11:54;101290.22;;;14.31;65.52
24234;BME280;12365;43.554;1.388;2024-01-30T05:14:20;101288.59;;;14.33;65.58
24234;BME280;12365;43.554;1.388;2024-01-30T05:16:45;101299.13;;;14.33;65.52
24234;BME280;12365;43.554;1.388;2024-01-30T05:19:13;101305.25;;;14.34;65.59
24234;BME280;12365;43.554;1.388;2024-01-30T05:21:39;101309.78;;;14.36;65.71
24234;BME280;12365;43.554;1.388;2024-01-30T05:24:05;101311.50;;;14.36;65.58
24234;BME280;12365;43.554;1.388;2024-01-30T05:26:30;101309.06;;;14.39;65.56
24234;BME280;12365;43.554;1.388;2024-01-30T05:28:55;101310.06;;;14.41;65.59
24234;BME280;12365;43.554;1.388;2024-01-30T05:31:21;101320.56;;;14.41;65.46
24234;BME280;12365;43.554;1.388;2024-01-30T05:33:46;101328.50;;;14.42;65.66
24234;BME280;12365;43.554;1.388;2024-01-30T05:36:12;101325.97;;;14.44;65.56
24234;BME280;12365;43.554;1.388;2024-01-30T05:38:40;101323.34;;;14.44;65.56
24234;BME280;12365;43.554;1.388;2024-01-30T05:41:05;101319.91;;;14.45;65.61
24234;BME280;12365;43.554;1.388;2024-01-30T05:43:31;101326.97;;;14.46;65.43
24234;BME280;12365;43.554;1.388;2024-01-30T05:45:56;101321.72;;;14.46;65.47
24234;BME280;12365;43.554;1.388;2024-01-30T05:48:22;101313.00;;;14.47;65.50
24234;BME280;12365;43.554;1.388;2024-01-30T05:50:47;101320.00;;;14.46;65.53
24234;BME280;12365;43.554;1.388;2024-01-30T05:53:12;101305.97;;;14.46;65.53
24234;BME280;12365;43.554;1.388;2024-01-30T05:55:38;101313.00;;;14.47;65.59
24234;BME280;12365;43.554;1.388;2024-01-30T05:58:03;101317.38;;;14.46;65.52
24234;BME280;12365;43.554;1.388;2024-01-30T06:00:29;101318.09;;;14.44;65.50
24234;BME280;12365;43.554;1.388;2024-01-30T06:02:54;101310.06;;;14.41;65.52
24234;BME280;12365;43.554;1.388;2024-01-30T06:05:20;101310.84;;;14.40;65.73
24234;BME280;12365;43.554;1.388;2024-01-30T06:07:45;101310.69;;;14.37;65.71
24234;BME280;12365;43.554;1.388;2024-01-30T06:10:11;101330.78;;;14.36;65.65
24234;BME280;12365;43.554;1.388;2024-01-30T06:12:37;101317.50;;;14.33;65.49
24234;BME280;12365;43.554;1.388;2024-01-30T06:15:03;101331.53;;;14.34;65.78
24234;BME280;12365;43.554;1.388;2024-01-30T06:17:29;101331.53;;;14.34;65.67
24234;BME280;12365;43.554;1.388;2024-01-30T06:19:55;101333.31;;;14.35;65.74
24234;BME280;12365;43.554;1.388;2024-01-30T06:22:20;101334.13;;;14.34;65.58
24234;BME280;12365;43.554;1.388;2024-01-30T06:24:46;101330.53;;;14.31;65.63
24234;BME280;12365;43.554;1.388;2024-01-30T06:27:14;101330.34;;;14.28;65.70
24234;BME280;12365;43.554;1.388;2024-01-30T06:29:40;101325.56;;;14.21;65.78
24234;BME280;12365;43.554;1.388;2024-01-30T06:32:06;101331.59;;;14.20;65.80
24234;BME280;12365;43.554;1.388;2024-01-30T06:34:31;101328.81;;;14.17;65.67
24234;BME280;12365;43.554;1.388;2024-01-30T06:36:56;101334.06;;;14.17;65.81
24234;BME280;12365;43.554;1.388;2024-01-30T06:39:22;101340.84;;;14.14;65.66
24234;BME280;12365;43.554;1.388;2024-01-30T06:41:48;101354.69;;;14.11;65.74
24234;BME280;12365;43.554;1.388;2024-01-30T06:44:13;101353.81;;;14.11;65.86
24234;BME280;12365;43.554;1.388;2024-01-30T06:46:39;101350.25;;;14.10;65.92
24234;BME280;12365;43.554;1.388;2024-01-30T06:49:04;101359.06;;;14.11;65.85
24234;BME280;12365;43.554;1.388;2024-01-30T06:51:30;101359.84;;;14.09;65.77
24234;BME280;12365;43.554;1.388;2024-01-30T06:53:55;101365.09;;;14.09;65.90
24234;BME280;12365;43.554;1.388;2024-01-30T06:56:20;101362.56;;;14.11;65.87
24234;BME280;12365;43.554;1.388;2024-01-30T06:58:47;101359.94;;;14.11;65.89
24234;BME280;12365;43.554;1.388;2024-01-30T07:01:14;101359.84;;;14.09;65.83
24234;BME280;12365;43.554;1.388;2024-01-30T07:03:40;101367.72;;;14.09;66.12
24234;BME280;12365;43.554;1.388;2024-01-30T07:06:05;101366.00;;;14.10;65.78
24234;BME280;12365;43.554;1.388;2024-01-30T07:08:30;101354.69;;;14.11;65.78
24234;BME280;12365;43.554;1.388;2024-01-30T07:10:56;101362.56;;;14.11;65.92
24234;BME280;12365;43.554;1.388;2024-01-30T07:13:22;101367.72;;;14.09;65.81
24234;BME280;12365;43.554;1.388;2024-01-30T07:15:47;101369.44;;;14.09;65.76
24234;BME280;12365;43.554;1.388;2024-01-30T07:18:12;101373.88;;;14.10;65.83
24234;BME280;12365;43.554;1.388;2024-01-30T07:20:39;101375.78;;;14.13;65.97
24234;BME280;12365;43.554;1.388;2024-01-30T07:23:11;101377.59;;;14.14;65.85
24234;BME280;12365;43.554;1.388;2024-01-30T07:25:41;101377.66;;;14.15;66.00
24234;BME280;12365;43.554;1.388;2024-01-30T07:28:07;101377.78;;;14.17;65.73
24234;BME280;12365;43.554;1.388;2024-01-30T07:30:35;101376.78;;;14.15;66.03
24234;BME280;12365;43.554;1.388;2024-01-30T07:33:00;101386.56;;;14.17;65.86
24234;BME280;12365;43.554;1.388;2024-01-30T07:35:26;101385.75;;;14.18;65.91
24234;BME280;12365;43.554;1.388;2024-01-30T07:37:51;101386.66;;;14.19;65.55
24234;BME280;12365;43.554;1.388;2024-01-30T07:40:17;101392.97;;;14.22;65.88
24234;BME280;12365;43.554;1.388;2024-01-30T07:42:42;101389.56;;;14.23;65.84
24234;BME280;12365;43.554;1.388;2024-01-30T07:45:08;101395.88;;;14.27;65.81
24234;BME280;12365;43.554;1.388;2024-01-30T07:47:33;101400.41;;;14.29;65.82
24234;BME280;12365;43.554;1.388;2024-01-30T07:49:59;101401.50;;;14.33;65.54
24234;BME280;12365;43.554;1.388;2024-01-30T07:52:24;101413.09;;;14.37;65.86
24234;BME280;12365;43.554;1.388;2024-01-30T07:54:50;101413.25;;;14.40;65.82
24234;BME280;12365;43.554;1.388;2024-01-30T07:57:16;101422.31;;;14.45;65.68
24234;BME280;12365;43.554;1.388;2024-01-30T07:59:45;101425.06;;;14.46;65.74
24234;BME280;12365;43.554;1.388;2024-01-30T08:02:12;101417.44;;;14.51;65.72
24234;BME280;12365;43.554;1.388;2024-01-30T08:04:38;101427.31;;;14.55;65.74
24234;BME280;12365;43.554;1.388;2024-01-30T08:07:03;101425.16;;;14.63;65.68
24234;BME280;12365;43.554;1.388;2024-01-30T08:09:29;101422.97;;;14.70;65.54
24234;BME280;12365;43.554;1.388;2024-01-30T08:11:54;101423.41;;;14.78;65.58
24234;BME280;12365;43.554;1.388;2024-01-30T08:14:20;101416.78;;;14.85;65.46
24234;BME280;12365;43.554;1.388;2024-01-30T08:16:45;101423.66;;;14.98;65.47
24234;BME280;12365;43.554;1.388;2024-01-30T08:19:10;101418.34;;;15.12;65.21
24234;BME280;12365;43.554;1.388;2024-01-30T08:21:36;101418.22;;;15.26;65.04
24234;BME280;12365;43.554;1.388;2024-01-30T08:24:05;101417.75;;;15.33;64.94
24234;BME280;12365;43.554;1.388;2024-01-30T08:26:34;101414.28;;;15.34;64.95
24234;BME280;12365;43.554;1.388;2024-01-30T08:29:00;101415.09;;;15.33;64.93
24234;BME280;12365;43.554;1.388;2024-01-30T08:31:26;101420.53;;;15.36;64.88
24234;BME280;12365;43.554;1.388;2024-01-30T08:33:51;101427.84;;;15.42;64.72
24234;BME280;12365;43.554;1.388;2024-01-30T08:36:17;101424.00;;;15.51;64.80
24234;BME280;12365;43.554;1.388;2024-01-30T08:38:43;101428.94;;;15.61;64.58
24234;BME280;12365;43.554;1.388;2024-01-30T08:41:08;101419.66;;;15.68;64.45
24234;BME280;12365;43.554;1.388;2024-01-30T08:43:34;101425.03;;;15.70;64.40
24234;BME280;12365;43.554;1.388;2024-01-30T08:46:00;101421.75;;;15.74;64.28
24234;BME280;12365;43.554;1.388;2024-01-30T08:48:26;101422.97;;;15.80;64.28
24234;BME280;12365;43.554;1.388;2024-01-30T08:50:51;101427.03;;;15.90;64.26
24234;BME280;12365;43.554;1.388;2024-01-30T08:53:17;101431.41;;;16.08;64.21
24234;BME280;12365;43.554;1.388;2024-01-30T08:55:42;101434.13;;;16.25;63.97
24234;BME280;12365;43.554;1.388;2024-01-30T08:58:07;101426.03;;;16.39;63.75
24234;BME280;12365;43.554;1.388;2024-01-30T09:00:33;101431.22;;;16.55;63.67
24234;BME280;12365;43.554;1.388;2024-01-30T09:02:58;101435.38;;;16.68;63.49
24234;BME280;12365;43.554;1.388;2024-01-30T09:05:24;101434.81;;;16.74;63.00
24234;BME280;12365;43.554;1.388;2024-01-30T09:07:49;101445.59;;;16.78;62.92
24234;BME280;12365;43.554;1.388;2024-01-30T09:10:15;101446.66;;;16.82;62.84
24234;BME280;12365;43.554;1.388;2024-01-30T09:12:41;101450.50;;;16.88;62.65
24234;BME280;12365;43.554;1.388;2024-01-30T09:15:06;101453.50;;;16.96;62.50
24234;BME280;12365;43.554;1.388;2024-01-30T09:17:32;101460.00;;;17.03;62.35
24234;BME280;12365;43.554;1.388;2024-01-30T09:19:58;101452.75;;;16.99;62.17
24234;BME280;12365;43.554;1.388;2024-01-30T09:22:23;101468.38;;;16.94;62.09
24234;BME280;12365;43.554;1.388;2024-01-30T09:24:49;101461.97;;;16.89;62.02
24234;BME280;12365;43.554;1.388;2024-01-30T09:27:14;101468.88;;;16.87;62.10
24234;BME280;12365;43.554;1.388;2024-01-30T09:29:40;101477.03;;;16.92;62.01
24234;BME280;12365;43.554;1.388;2024-01-30T09:32:05;101470.91;;;16.93;61.69
24234;BME280;12365;43.554;1.388;2024-01-30T09:34:31;101475.22;;;16.90;61.46
24234;BME280;12365;43.554;1.388;2024-01-30T09:36:58;101464.66;;;16.90;61.46
24234;BME280;12365;43.554;1.388;2024-01-30T09:39:24;101478.97;;;16.96;61.44
24234;BME280;12365;43.554;1.388;2024-01-30T09:42:02;101470.69;;;17.06;61.37
24234;BME280;12365;43.554;1.388;2024-01-30T09:44:30;101466.41;;;17.08;61.01
24234;BME280;12365;43.554;1.388;2024-01-30T09:46:56;101469.03;;;17.08;60.97
24234;BME280;12365;43.554;1.388;2024-01-30T09:49:24;101468.44;;;17.14;60.94
24234;BME280;12365;43.554;1.388;2024-01-30T09:51:50;101476.72;;;17.21;60.61
24234;BME280;12365;43.554;1.388;2024-01-30T09:54:18;101476.88;;;17.24;60.28
24234;BME280;12365;43.554;1.388;2024-01-30T09:56:44;101466.38;;;17.26;60.13
24234;BME280;12365;43.554;1.388;2024-01-30T09:59:10;101476.13;;;17.27;60.01
24234;BME280;12365;43.554;1.388;2024-01-30T10:01:36;101474.28;;;17.26;59.89
24234;BME280;12365;43.554;1.388;2024-01-30T10:04:01;101470.75;;;17.25;59.83
24234;BME280;12365;43.554;1.388;2024-01-30T10:06:27;101473.41;;;17.25;59.71
24234;BME280;12365;43.554;1.388;2024-01-30T10:08:53;101469.03;;;17.26;59.61
24234;BME280;12365;43.554;1.388;2024-01-30T10:11:18;101464.81;;;17.29;59.51
24234;BME280;12365;43.554;1.388;2024-01-30T10:13:43;101468.56;;;17.35;59.53
24234;BME280;12365;43.554;1.388;2024-01-30T10:16:09;101466.22;;;17.41;59.25
24234;BME280;12365;43.554;1.388;2024-01-30T10:18:34;101459.28;;;17.43;59.02
24234;BME280;12365;43.554;1.388;2024-01-30T10:21:00;101454.22;;;17.47;58.95
24234;BME280;12365;43.554;1.388;2024-01-30T10:23:26;101458.75;;;17.50;58.98
24234;BME280;12365;43.554;1.388;2024-01-30T10:25:51;101459.38;;;17.64;58.50
24234;BME280;12365;43.554;1.388;2024-01-30T10:28:17;101463.22;;;17.70;58.39
24234;BME280;12365;43.554;1.388;2024-01-30T10:30:43;101460.03;;;17.77;58.21
24234;BME280;12365;43.554;1.388;2024-01-30T10:33:08;101460.47;;;17.87;58.05
24234;BME280;12365;43.554;1.388;2024-01-30T10:35:34;101458.81;;;17.89;57.73
24234;BME280;12365;43.554;1.388;2024-01-30T10:38:00;101453.66;;;17.92;57.60
24234;BME280;12365;43.554;1.388;2024-01-30T10:40:28;101450.19;;;17.93;57.53
24234;BME280;12365;43.554;1.388;2024-01-30T10:42:55;101452.06;;;17.95;57.53
24234;BME280;12365;43.554;1.388;2024-01-30T10:45:22;101452.53;;;18.06;57.48
24234;BME280;12365;43.554;1.388;2024-01-30T10:47:53;101442.31;;;18.14;57.36
24234;BME280;12365;43.554;1.388;2024-01-30T10:50:24;101447.69;;;18.15;57.10
24234;BME280;12365;43.554;1.388;2024-01-30T10:52:50;101440.88;;;18.21;57.00
24234;BME280;12365;43.554;1.388;2024-01-30T10:55:15;101445.56;;;18.28;56.65
24234;BME280;12365;43.554;1.388;2024-01-30T10:57:41;101445.09;;;18.38;56.61
24234;BME280;12365;43.554;1.388;2024-01-30T11:00:08;101445.31;;;18.42;56.53
24234;BME280;12365;43.554;1.388;2024-01-30T11:02:40;101431.31;;;18.45;56.36
24234;BME280;12365;43.554;1.388;2024-01-30T11:05:06;101442.94;;;18.49;56.18
24234;BME280;12365;43.554;1.388;2024-01-30T11:07:33;101443.19;;;18.55;56.05
24234;BME280;12365;43.554;1.388;2024-01-30T11:12:25;101445.72;;;18.73;55.65
24234;BME280;12365;43.554;1.388;2024-01-30T11:15:07;101433.63;;;18.78;56.12
24234;BME280;12365;43.554;1.388;2024-01-30T11:18:00;101427.97;;;18.91;55.93
24234;BME280;12365;43.554;1.388;2024-01-30T11:20:30;101427.28;;;18.95;55.60
24234;BME280;12365;43.554;1.388;2024-01-30T11:23:01;101423.78;;;18.96;55.46
24234;BME280;12365;43.554;1.388;2024-01-30T11:25:31;101418.50;;;18.96;55.21
24234;BME280;12365;43.554;1.388;2024-01-30T11:27:57;101416.81;;;18.98;55.21
24234;BME280;12365;43.554;1.388;2024-01-30T11:33:27;101409.38;;;19.11;55.23
24234;BME280;12365;43.554;1.388;2024-01-30T11:35:57;101412.13;;;19.14;55.19
24234;BME280;12365;43.554;1.388;2024-01-30T11:38:23;101415.16;;;19.23;54.63
24234;BME280;12365;43.554;1.388;2024-01-30T11:40:51;101411.00;;;19.30;54.54
24234;BME280;12365;43.554;1.388;2024-01-30T11:43:16;101408.66;;;19.37;54.31
24234;BME280;12365;43.554;1.388;2024-01-30T11:45:42;101414.88;;;19.39;54.23
24234;BME280;12365;43.554;1.388;2024-01-30T11:48:11;101416.59;;;19.37;54.16
24234;BME280;12365;43.554;1.388;2024-01-30T11:50:38;101410.38;;;19.37;53.81
24234;BME280;12365;43.554;1.388;2024-01-30T11:53:04;101407.91;;;19.41;54.19
24234;BME280;12365;43.554;1.388;2024-01-30T11:55:30;101404.66;;;19.48;53.87
24234;BME280;12365;43.554;1.388;2024-01-30T11:57:57;101399.75;;;19.59;53.60
24234;BME280;12365;43.554;1.388;2024-01-30T12:00:23;101395.75;;;19.69;53.54
24234;BME280;12365;43.554;1.388;2024-01-30T12:02:52;101386.41;;;19.79;53.44
24234;BME280;12365;43.554;1.388;2024-01-30T12:05:30;101387.53;;;19.85;53.55
24234;BME280;12365;43.554;1.388;2024-01-30T12:07:55;101393.72;;;19.86;53.12
24234;BME280;12365;43.554;1.388;2024-01-30T12:10:24;101388.47;;;19.87;53.01
24234;BME280;12365;43.554;1.388;2024-01-30T12:12:50;101380.53;;;19.87;52.88
24234;BME280;12365;43.554;1.388;2024-01-30T12:15:16;101378.03;;;19.92;53.19
24234;BME280;12365;43.554;1.388;2024-01-30T12:17:42;101388.59;;;19.90;53.00
24234;BME280;12365;43.554;1.388;2024-01-30T12:20:15;101373.44;;;19.86;52.62
24234;BME280;12365;43.554;1.388;2024-01-30T12:22:42;101373.63;;;19.92;52.71
24234;BME280;12365;43.554;1.388;2024-01-30T12:25:09;101358.16;;;20.03;52.71
24234;BME280;12365;43.554;1.388;2024-01-30T12:27:35;101364.50;;;20.08;52.42
24234;BME280;12365;43.554;1.388;2024-01-30T12:30:02;101367.34;;;20.14;52.34
24234;BME280;12365;43.554;1.388;2024-01-30T12:32:29;101369.44;;;20.23;52.49
24234;BME280;12365;43.554;1.388;2024-01-30T12:34:56;101358.97;;;20.28;52.19
24234;BME280;12365;43.554;1.388;2024-01-30T12:37:22;101357.09;;;20.24;52.01
24234;BME280;12365;43.554;1.388;2024-01-30T12:39:50;101359.41;;;20.14;52.01
24234;BME280;12365;43.554;1.388;2024-01-30T12:42:16;101356.38;;;20.04;51.60
24234;BME280;12365;43.554;1.388;2024-01-30T12:44:41;101354.59;;;20.03;52.00
24234;BME280;12365;43.554;1.388;2024-01-30T12:47:09;101354.69;;;20.06;51.68
24234;BME280;12365;43.554;1.388;2024-01-30T12:49:35;101344.09;;;20.06;51.55